sensor_id;sensor_type;location;lat;lon;timestamp;P1;durP1;ratioP1;P2;durP2;ratioP2
21645;SDS011;10984;45.712;4.800;2023-02-28T00:00:29;6.72;;;3.13;;
21645;SDS011;10984;45.712;4.800;2023-02-28T00:02:54;6.65;;;3.30;;
21645;SDS011;10984;45.712;4.800;2023-02-28T00:05:21;7.10;;;3.25;;
21645;SDS011;10984;45.712;4.800;2023-02-28T00:07:49;6.93;;;3.15;;
21645;SDS011;10984;45.712;4.800;2023-02-28T00:10:17;5.93;;;2.92;;
21645;SDS011;10984;45.712;4.800;2023-02-28T00:12:46;7.93;;;3.22;;
21645;SDS011;10984;45.712;4.800;2023-02-28T00:15:12;6.93;;;3.05;;
21645;SDS011;10984;45.712;4.800;2023-02-28T00:17:38;7.40;;;3.63;;
21645;SDS011;10984;45.712;4.800;2023-02-28T00:20:04;7.85;;;3.53;;
21645;SDS011;10984;45.712;4.800;2023-02-28T00:22:49;5.78;;;3.55;;
21645;SDS011;10984;45.712;4.800;2023-02-28T00:25:18;6.82;;;3.08;;
21645;SDS011;10984;45.712;4.800;2023-02-28T00:27:46;9.00;;;3.72;;
21645;SDS011;10984;45.712;4.800;2023-02-28T00:30:13;11.43;;;5.47;;
21645;SDS011;10984;45.712;4.800;2023-02-28T00:32:41;7.85;;;5.07;;
21645;SDS011;10984;45.712;4.800;2023-02-28T00:35:07;8.10;;;4.78;;
21645;SDS011;10984;45.712;4.800;2023-02-28T00:37:33;8.35;;;3.92;;
21645;SDS011;10984;45.712;4.800;2023-02-28T00:39:59;5.50;;;2.95;;
21645;SDS011;10984;45.712;4.800;2023-02-28T00:42:24;7.82;;;3.22;;
21645;SDS011;10984;45.712;4.800;2023-02-28T00:44:50;7.78;;;3.47;;
21645;SDS011;10984;45.712;4.800;2023-02-28T00:47:16;6.50;;;3.58;;
21645;SDS011;10984;45.712;4.800;2023-02-28T00:49:41;6.47;;;3.28;;
21645;SDS011;10984;45.712;4.800;2023-02-28T00:52:07;6.95;;;2.90;;
21645;SDS011;10984;45.712;4.800;2023-02-28T00:54:33;5.78;;;3.15;;
21645;SDS011;10984;45.712;4.800;2023-02-28T00:56:59;8.60;;;3.33;;
21645;SDS011;10984;45.712;4.800;2023-02-28T00:59:25;5.47;;;3.28;;
21645;SDS011;10984;45.712;4.800;2023-02-28T01:01:50;10.07;;;3.30;;
21645;SDS011;10984;45.712;4.800;2023-02-28T01:04:16;6.13;;;3.20;;
21645;SDS011;10984;45.712;4.800;2023-02-28T01:06:42;4.82;;;2.72;;
21645;SDS011;10984;45.712;4.800;2023-02-28T01:09:08;6.93;;;3.30;;
21645;SDS011;10984;45.712;4.800;2023-02-28T01:11:34;8.38;;;3.30;;
21645;SDS011;10984;45.712;4.800;2023-02-28T01:14:00;7.28;;;3.13;;
21645;SDS011;10984;45.712;4.800;2023-02-28T01:16:27;6.35;;;3.35;;
21645;SDS011;10984;45.712;4.800;2023-02-28T01:18:52;8.95;;;3.78;;
21645;SDS011;10984;45.712;4.800;2023-02-28T01:21:19;9.25;;;3.83;;
21645;SDS011;10984;45.712;4.800;2023-02-28T01:23:46;11.85;;;3.88;;
21645;SDS011;10984;45.712;4.800;2023-02-28T01:28:56;8.07;;;3.55;;
21645;SDS011;10984;45.712;4.800;2023-02-28T01:31:22;7.63;;;3.60;;
21645;SDS011;10984;45.712;4.800;2023-02-28T01:33:48;5.63;;;2.65;;
21645;SDS011;10984;45.712;4.800;2023-02-28T01:38:58;6.13;;;3.25;;
21645;SDS011;10984;45.712;4.800;2023-02-28T01:41:25;5.78;;;2.50;;
21645;SDS011;10984;45.712;4.800;2023-02-28T01:43:54;6.05;;;3.25;;
21645;SDS011;10984;45.712;4.800;2023-02-28T01:46:28;6.78;;;3.10;;
21645;SDS011;10984;45.712;4.800;2023-02-28T01:48:56;6.90;;;3.45;;
21645;SDS011;10984;45.712;4.800;2023-02-28T01:51:28;5.50;;;2.90;;
21645;SDS011;10984;45.712;4.800;2023-02-28T01:54:00;9.48;;;3.20;;
21645;SDS011;10984;45.712;4.800;2023-02-28T01:56:30;6.28;;;2.90;;
21645;SDS011;10984;45.712;4.800;2023-02-28T01:58:59;5.90;;;3.05;;
21645;SDS011;10984;45.712;4.800;2023-02-28T02:01:25;6.13;;;2.80;;
21645;SDS011;10984;45.712;4.800;2023-02-28T02:06:38;6.63;;;2.65;;
21645;SDS011;10984;45.712;4.800;2023-02-28T02:09:08;5.30;;;2.63;;
21645;SDS011;10984;45.712;4.800;2023-02-28T02:11:34;7.05;;;3.67;;
21645;SDS011;10984;45.712;4.800;2023-02-28T02:19:46;6.60;;;3.03;;
21645;SDS011;10984;45.712;4.800;2023-02-28T02:36:51;4.97;;;2.47;;
21645;SDS011;10984;45.712;4.800;2023-02-28T02:43:02;6.30;;;3.17;;
21645;SDS011;10984;45.712;4.800;2023-02-28T02:48:48;6.68;;;3.08;;
21645;SDS011;10984;45.712;4.800;2023-02-28T02:51:17;5.88;;;3.20;;
21645;SDS011;10984;45.712;4.800;2023-02-28T02:53:51;9.18;;;5.20;;
21645;SDS011;10984;45.712;4.800;2023-02-28T02:56:36;6.60;;;3.58;;
21645;SDS011;10984;45.712;4.800;2023-02-28T02:59:06;6.93;;;3.75;;
21645;SDS011;10984;45.712;4.800;2023-02-28T03:01:36;6.40;;;3.28;;
21645;SDS011;10984;45.712;4.800;2023-02-28T03:04:08;6.72;;;3.25;;
21645;SDS011;10984;45.712;4.800;2023-02-28T03:06:36;5.32;;;2.72;;
21645;SDS011;10984;45.712;4.800;2023-02-28T03:09:02;7.10;;;3.70;;
21645;SDS011;10984;45.712;4.800;2023-02-28T03:11:29;5.80;;;3.00;;
21645;SDS011;10984;45.712;4.800;2023-02-28T03:37:56;5.45;;;2.97;;
21645;SDS011;10984;45.712;4.800;2023-02-28T03:43:34;5.50;;;2.72;;
21645;SDS011;10984;45.712;4.800;2023-02-28T03:46:04;6.80;;;2.85;;
21645;SDS011;10984;45.712;4.800;2023-02-28T03:51:22;6.45;;;2.90;;
21645;SDS011;10984;45.712;4.800;2023-02-28T03:53:52;6.10;;;2.95;;
21645;SDS011;10984;45.712;4.800;2023-02-28T03:59:27;5.32;;;2.88;;
21645;SDS011;10984;45.712;4.800;2023-02-28T04:01:55;5.22;;;2.58;;
21645;SDS011;10984;45.712;4.800;2023-02-28T04:04:23;7.28;;;3.33;;
21645;SDS011;10984;45.712;4.800;2023-02-28T04:09:36;5.18;;;2.70;;
21645;SDS011;10984;45.712;4.800;2023-02-28T04:12:01;5.03;;;2.55;;
21645;SDS011;10984;45.712;4.800;2023-02-28T04:14:27;4.10;;;2.42;;
21645;SDS011;10984;45.712;4.800;2023-02-28T04:16:53;6.53;;;2.97;;
21645;SDS011;10984;45.712;4.800;2023-02-28T04:19:19;5.20;;;2.78;;
21645;SDS011;10984;45.712;4.800;2023-02-28T04:21:45;6.22;;;2.83;;
21645;SDS011;10984;45.712;4.800;2023-02-28T04:24:30;6.05;;;2.95;;
21645;SDS011;10984;45.712;4.800;2023-02-28T04:26:56;4.43;;;2.33;;
21645;SDS011;10984;45.712;4.800;2023-02-28T04:32:09;5.65;;;3.15;;
21645;SDS011;10984;45.712;4.800;2023-02-28T04:34:35;5.53;;;3.13;;
21645;SDS011;10984;45.712;4.800;2023-02-28T04:37:01;7.35;;;3.08;;
21645;SDS011;10984;45.712;4.800;2023-02-28T04:39:28;5.85;;;3.33;;
21645;SDS011;10984;45.712;4.800;2023-02-28T04:41:54;5.55;;;2.78;;
21645;SDS011;10984;45.712;4.800;2023-02-28T04:44:20;5.72;;;2.78;;
21645;SDS011;10984;45.712;4.800;2023-02-28T04:46:47;6.97;;;3.00;;
21645;SDS011;10984;45.712;4.800;2023-02-28T04:49:13;5.63;;;2.88;;
21645;SDS011;10984;45.712;4.800;2023-02-28T04:51:39;5.25;;;2.55;;
21645;SDS011;10984;45.712;4.800;2023-02-28T04:54:05;8.13;;;2.92;;
21645;SDS011;10984;45.712;4.800;2023-02-28T04:56:31;5.95;;;2.88;;
21645;SDS011;10984;45.712;4.800;2023-02-28T04:58:56;7.00;;;3.42;;
21645;SDS011;10984;45.712;4.800;2023-02-28T05:04:10;7.93;;;3.60;;
21645;SDS011;10984;45.712;4.800;2023-02-28T05:06:36;5.47;;;2.90;;
21645;SDS011;10984;45.712;4.800;2023-02-28T05:09:01;6.40;;;3.50;;
21645;SDS011;10984;45.712;4.800;2023-02-28T05:11:31;6.65;;;3.00;;
21645;SDS011;10984;45.712;4.800;2023-02-28T05:14:17;6.13;;;3.30;;
21645;SDS011;10984;45.712;4.800;2023-02-28T05:16:42;8.82;;;3.00;;
21645;SDS011;10984;45.712;4.800;2023-02-28T05:19:08;10.27;;;3.00;;
21645;SDS011;10984;45.712;4.800;2023-02-28T05:21:35;8.43;;;3.45;;
21645;SDS011;10984;45.712;4.800;2023-02-28T05:24:04;6.97;;;3.20;;
21645;SDS011;10984;45.712;4.800;2023-02-28T05:26:34;5.57;;;2.97;;
21645;SDS011;10984;45.712;4.800;2023-02-28T05:29:01;5.80;;;3.30;;
21645;SDS011;10984;45.712;4.800;2023-02-28T05:31:27;6.22;;;3.13;;
21645;SDS011;10984;45.712;4.800;2023-02-28T05:33:53;6.90;;;2.75;;
21645;SDS011;10984;45.712;4.800;2023-02-28T05:36:19;7.03;;;3.63;;
21645;SDS011;10984;45.712;4.800;2023-02-28T05:38:47;5.07;;;2.53;;
21645;SDS011;10984;45.712;4.800;2023-02-28T05:41:13;7.00;;;2.60;;
21645;SDS011;10984;45.712;4.800;2023-02-28T05:43:39;6.40;;;2.67;;
21645;SDS011;10984;45.712;4.800;2023-02-28T05:46:06;6.10;;;3.22;;
21645;SDS011;10984;45.712;4.800;2023-02-28T05:48:34;6.18;;;2.75;;
21645;SDS011;10984;45.712;4.800;2023-02-28T05:51:01;7.32;;;3.42;;
21645;SDS011;10984;45.712;4.800;2023-02-28T05:53:28;7.65;;;3.80;;
21645;SDS011;10984;45.712;4.800;2023-02-28T05:55:54;8.50;;;3.30;;
21645;SDS011;10984;45.712;4.800;2023-02-28T05:58:20;5.18;;;3.08;;
21645;SDS011;10984;45.712;4.800;2023-02-28T06:00:46;5.97;;;3.00;;
21645;SDS011;10984;45.712;4.800;2023-02-28T06:03:12;6.85;;;4.35;;
21645;SDS011;10984;45.712;4.800;2023-02-28T06:05:38;8.93;;;3.72;;
21645;SDS011;10984;45.712;4.800;2023-02-28T06:08:04;6.55;;;3.63;;
21645;SDS011;10984;45.712;4.800;2023-02-28T06:10:32;6.35;;;3.78;;
21645;SDS011;10984;45.712;4.800;2023-02-28T06:13:16;7.38;;;3.95;;
21645;SDS011;10984;45.712;4.800;2023-02-28T06:15:41;7.20;;;3.08;;
21645;SDS011;10984;45.712;4.800;2023-02-28T06:18:07;5.78;;;3.10;;
21645;SDS011;10984;45.712;4.800;2023-02-28T06:20:32;6.78;;;2.90;;
21645;SDS011;10984;45.712;4.800;2023-02-28T06:22:59;10.93;;;3.72;;
21645;SDS011;10984;45.712;4.800;2023-02-28T06:25:25;6.07;;;3.25;;
21645;SDS011;10984;45.712;4.800;2023-02-28T06:27:52;5.82;;;3.25;;
21645;SDS011;10984;45.712;4.800;2023-02-28T06:30:18;7.38;;;3.67;;
21645;SDS011;10984;45.712;4.800;2023-02-28T06:32:48;6.47;;;3.90;;
21645;SDS011;10984;45.712;4.800;2023-02-28T06:35:14;6.82;;;3.83;;
21645;SDS011;10984;45.712;4.800;2023-02-28T06:37:40;5.78;;;3.22;;
21645;SDS011;10984;45.712;4.800;2023-02-28T06:40:07;5.78;;;3.45;;
21645;SDS011;10984;45.712;4.800;2023-02-28T06:42:34;7.10;;;3.63;;
21645;SDS011;10984;45.712;4.800;2023-02-28T06:45:00;8.95;;;3.95;;
21645;SDS011;10984;45.712;4.800;2023-02-28T06:47:28;9.10;;;4.32;;
21645;SDS011;10984;45.712;4.800;2023-02-28T06:49:55;6.93;;;3.90;;
21645;SDS011;10984;45.712;4.800;2023-02-28T06:52:21;5.95;;;3.25;;
21645;SDS011;10984;45.712;4.800;2023-02-28T06:54:47;6.05;;;3.05;;
21645;SDS011;10984;45.712;4.800;2023-02-28T06:57:28;7.80;;;3.55;;
21645;SDS011;10984;45.712;4.800;2023-02-28T06:59:58;7.20;;;3.55;;
21645;SDS011;10984;45.712;4.800;2023-02-28T07:02:25;9.20;;;3.53;;
21645;SDS011;10984;45.712;4.800;2023-02-28T07:04:51;6.32;;;3.38;;
21645;SDS011;10984;45.712;4.800;2023-02-28T07:07:16;5.90;;;3.10;;
21645;SDS011;10984;45.712;4.800;2023-02-28T07:09:42;8.02;;;3.40;;
21645;SDS011;10984;45.712;4.800;2023-02-28T07:12:08;6.75;;;3.33;;
21645;SDS011;10984;45.712;4.800;2023-02-28T07:14:33;7.38;;;3.80;;
21645;SDS011;10984;45.712;4.800;2023-02-28T07:17:01;5.85;;;3.17;;
21645;SDS011;10984;45.712;4.800;2023-02-28T07:19:26;7.47;;;2.97;;
21645;SDS011;10984;45.712;4.800;2023-02-28T07:21:53;8.40;;;3.28;;
21645;SDS011;10984;45.712;4.800;2023-02-28T07:24:18;7.78;;;3.88;;
21645;SDS011;10984;45.712;4.800;2023-02-28T07:26:44;6.35;;;3.40;;
21645;SDS011;10984;45.712;4.800;2023-02-28T07:29:10;10.32;;;4.43;;
21645;SDS011;10984;45.712;4.800;2023-02-28T07:31:36;7.65;;;3.45;;
21645;SDS011;10984;45.712;4.800;2023-02-28T07:34:01;8.30;;;3.58;;
21645;SDS011;10984;45.712;4.800;2023-02-28T07:36:28;6.40;;;3.42;;
21645;SDS011;10984;45.712;4.800;2023-02-28T07:38:53;10.02;;;4.20;;
21645;SDS011;10984;45.712;4.800;2023-02-28T07:41:20;6.28;;;3.72;;
21645;SDS011;10984;45.712;4.800;2023-02-28T07:43:48;7.35;;;3.85;;
21645;SDS011;10984;45.712;4.800;2023-02-28T07:46:14;6.15;;;3.20;;
21645;SDS011;10984;45.712;4.800;2023-02-28T07:48:41;7.50;;;3.28;;
21645;SDS011;10984;45.712;4.800;2023-02-28T07:51:07;6.95;;;2.95;;
21645;SDS011;10984;45.712;4.800;2023-02-28T07:53:33;6.95;;;3.53;;
21645;SDS011;10984;45.712;4.800;2023-02-28T07:55:59;9.30;;;3.78;;
21645;SDS011;10984;45.712;4.800;2023-02-28T07:58:27;6.50;;;3.53;;
21645;SDS011;10984;45.712;4.800;2023-02-28T08:00:54;7.13;;;3.72;;
21645;SDS011;10984;45.712;4.800;2023-02-28T08:03:21;6.50;;;2.95;;
21645;SDS011;10984;45.712;4.800;2023-02-28T08:05:48;7.28;;;3.38;;
21645;SDS011;10984;45.712;4.800;2023-02-28T08:08:14;9.45;;;4.20;;
21645;SDS011;10984;45.712;4.800;2023-02-28T08:10:41;6.68;;;3.47;;
21645;SDS011;10984;45.712;4.800;2023-02-28T08:13:07;5.88;;;3.38;;
21645;SDS011;10984;45.712;4.800;2023-02-28T08:15:32;5.45;;;2.83;;
21645;SDS011;10984;45.712;4.800;2023-02-28T08:17:58;7.70;;;3.65;;
21645;SDS011;10984;45.712;4.800;2023-02-28T08:20:24;6.47;;;2.90;;
21645;SDS011;10984;45.712;4.800;2023-02-28T08:22:50;6.55;;;2.97;;
21645;SDS011;10984;45.712;4.800;2023-02-28T08:25:16;6.93;;;3.15;;
21645;SDS011;10984;45.712;4.800;2023-02-28T08:27:42;6.80;;;3.50;;
21645;SDS011;10984;45.712;4.800;2023-02-28T08:32:53;6.45;;;2.85;;
21645;SDS011;10984;45.712;4.800;2023-02-28T08:35:20;6.72;;;3.13;;
21645;SDS011;10984;45.712;4.800;2023-02-28T08:37:47;10.52;;;3.58;;
21645;SDS011;10984;45.712;4.800;2023-02-28T08:40:13;5.65;;;2.72;;
21645;SDS011;10984;45.712;4.800;2023-02-28T08:42:43;4.47;;;2.65;;
21645;SDS011;10984;45.712;4.800;2023-02-28T08:45:10;7.78;;;3.55;;
21645;SDS011;10984;45.712;4.800;2023-02-28T08:47:36;6.93;;;3.50;;
21645;SDS011;10984;45.712;4.800;2023-02-28T08:50:02;7.13;;;3.28;;
21645;SDS011;10984;45.712;4.800;2023-02-28T08:52:28;5.50;;;2.97;;
21645;SDS011;10984;45.712;4.800;2023-02-28T08:54:54;7.05;;;3.35;;
21645;SDS011;10984;45.712;4.800;2023-02-28T08:57:19;7.35;;;3.35;;
21645;SDS011;10984;45.712;4.800;2023-02-28T08:59:45;6.57;;;3.20;;
21645;SDS011;10984;45.712;4.800;2023-02-28T09:04:56;7.30;;;3.35;;
21645;SDS011;10984;45.712;4.800;2023-02-28T09:07:23;4.80;;;3.00;;
21645;SDS011;10984;45.712;4.800;2023-02-28T09:09:49;7.95;;;3.15;;
21645;SDS011;10984;45.712;4.800;2023-02-28T09:12:33;5.70;;;2.97;;
21645;SDS011;10984;45.712;4.800;2023-02-28T09:15:00;6.78;;;3.53;;
21645;SDS011;10984;45.712;4.800;2023-02-28T09:17:26;5.68;;;2.85;;
21645;SDS011;10984;45.712;4.800;2023-02-28T09:19:51;6.65;;;3.42;;
21645;SDS011;10984;45.712;4.800;2023-02-28T09:22:17;5.10;;;3.20;;
21645;SDS011;10984;45.712;4.800;2023-02-28T09:24:43;6.68;;;3.40;;
21645;SDS011;10984;45.712;4.800;2023-02-28T09:27:09;9.15;;;3.30;;
21645;SDS011;10984;45.712;4.800;2023-02-28T09:29:35;5.63;;;3.22;;
21645;SDS011;10984;45.712;4.800;2023-02-28T09:32:02;5.00;;;3.25;;
21645;SDS011;10984;45.712;4.800;2023-02-28T09:34:30;6.35;;;3.40;;
21645;SDS011;10984;45.712;4.800;2023-02-28T09:36:56;4.75;;;2.70;;
21645;SDS011;10984;45.712;4.800;2023-02-28T09:39:22;5.40;;;3.15;;
21645;SDS011;10984;45.712;4.800;2023-02-28T09:41:49;6.53;;;3.38;;
21645;SDS011;10984;45.712;4.800;2023-02-28T10:02:03;6.18;;;3.25;;
21645;SDS011;10984;45.712;4.800;2023-02-28T10:09:47;7.43;;;2.90;;
21645;SDS011;10984;45.712;4.800;2023-02-28T10:12:18;4.45;;;2.92;;
21645;SDS011;10984;45.712;4.800;2023-02-28T10:14:46;5.70;;;2.95;;
21645;SDS011;10984;45.712;4.800;2023-02-28T10:17:17;5.90;;;2.67;;
21645;SDS011;10984;45.712;4.800;2023-02-28T10:28:38;5.75;;;3.03;;
21645;SDS011;10984;45.712;4.800;2023-02-28T10:31:05;5.28;;;3.13;;
21645;SDS011;10984;45.712;4.800;2023-02-28T10:33:33;5.68;;;3.42;;
21645;SDS011;10984;45.712;4.800;2023-02-28T10:36:00;7.30;;;3.58;;
21645;SDS011;10984;45.712;4.800;2023-02-28T10:38:37;5.65;;;3.08;;
21645;SDS011;10984;45.712;4.800;2023-02-28T10:46:51;5.20;;;3.17;;
21645;SDS011;10984;45.712;4.800;2023-02-28T10:52:04;7.03;;;3.25;;
21645;SDS011;10984;45.712;4.800;2023-02-28T10:54:35;6.38;;;3.38;;
21645;SDS011;10984;45.712;4.800;2023-02-28T11:02:56;6.25;;;3.30;;
21645;SDS011;10984;45.712;4.800;2023-02-28T11:13:35;12.65;;;3.60;;
21645;SDS011;10984;45.712;4.800;2023-02-28T11:16:21;6.47;;;3.38;;
21645;SDS011;10984;45.712;4.800;2023-02-28T11:21:15;6.97;;;3.25;;
21645;SDS011;10984;45.712;4.800;2023-02-28T11:23:46;5.53;;;3.63;;
21645;SDS011;10984;45.712;4.800;2023-02-28T11:26:14;5.90;;;3.50;;
21645;SDS011;10984;45.712;4.800;2023-02-28T11:28:40;7.00;;;3.67;;
21645;SDS011;10984;45.712;4.800;2023-02-28T11:33:55;7.57;;;3.30;;
21645;SDS011;10984;45.712;4.800;2023-02-28T11:39:10;6.43;;;3.47;;
21645;SDS011;10984;45.712;4.800;2023-02-28T11:56:18;6.10;;;3.50;;
21645;SDS011;10984;45.712;4.800;2023-02-28T12:11:07;7.78;;;4.20;;
21645;SDS011;10984;45.712;4.800;2023-02-28T12:13:57;8.45;;;4.20;;
21645;SDS011;10984;45.712;4.800;2023-02-28T12:28:34;8.18;;;3.92;;
21645;SDS011;10984;45.712;4.800;2023-02-28T12:31:20;7.35;;;3.80;;
21645;SDS011;10984;45.712;4.800;2023-02-28T12:36:41;7.80;;;4.95;;
21645;SDS011;10984;45.712;4.800;2023-02-28T12:45:17;7.80;;;3.80;;
21645;SDS011;10984;45.712;4.800;2023-02-28T12:47:52;7.38;;;4.30;;
21645;SDS011;10984;45.712;4.800;2023-02-28T12:50:24;8.80;;;4.05;;
21645;SDS011;10984;45.712;4.800;2023-02-28T12:58:58;9.48;;;4.30;;
21645;SDS011;10984;45.712;4.800;2023-02-28T13:13:32;10.93;;;3.95;;
21645;SDS011;10984;45.712;4.800;2023-02-28T13:18:43;8.40;;;4.80;;
21645;SDS011;10984;45.712;4.800;2023-02-28T13:23:57;7.25;;;4.25;;
21645;SDS011;10984;45.712;4.800;2023-02-28T13:29:29;8.65;;;4.60;;
21645;SDS011;10984;45.712;4.800;2023-02-28T13:42:53;9.90;;;5.55;;
21645;SDS011;10984;45.712;4.800;2023-02-28T13:48:15;10.45;;;5.13;;
21645;SDS011;10984;45.712;4.800;2023-02-28T13:50:59;7.80;;;4.53;;
21645;SDS011;10984;45.712;4.800;2023-02-28T13:56:52;7.15;;;4.38;;
21645;SDS011;10984;45.712;4.800;2023-02-28T13:59:18;8.32;;;4.75;;
21645;SDS011;10984;45.712;4.800;2023-02-28T14:07:55;8.43;;;4.85;;
21645;SDS011;10984;45.712;4.800;2023-02-28T14:16:21;8.32;;;4.80;;
21645;SDS011;10984;45.712;4.800;2023-02-28T14:18:50;8.73;;;4.93;;
21645;SDS011;10984;45.712;4.800;2023-02-28T14:21:35;8.35;;;4.90;;
21645;SDS011;10984;45.712;4.800;2023-02-28T14:47:00;9.30;;;5.15;;
21645;SDS011;10984;45.712;4.800;2023-02-28T14:49:31;7.65;;;4.07;;
21645;SDS011;10984;45.712;4.800;2023-02-28T14:52:02;8.45;;;4.63;;
21645;SDS011;10984;45.712;4.800;2023-02-28T14:54:52;9.13;;;5.43;;
21645;SDS011;10984;45.712;4.800;2023-02-28T15:11:40;9.88;;;4.95;;
21645;SDS011;10984;45.712;4.800;2023-02-28T15:14:13;10.40;;;5.72;;
21645;SDS011;10984;45.712;4.800;2023-02-28T15:16:42;10.07;;;4.95;;
21645;SDS011;10984;45.712;4.800;2023-02-28T15:24:45;8.45;;;4.80;;
21645;SDS011;10984;45.712;4.800;2023-02-28T15:27:37;7.82;;;4.60;;
21645;SDS011;10984;45.712;4.800;2023-02-28T15:35:51;11.45;;;4.82;;
21645;SDS011;10984;45.712;4.800;2023-02-28T15:38:28;11.10;;;4.88;;
21645;SDS011;10984;45.712;4.800;2023-02-28T15:40:55;8.93;;;4.75;;
21645;SDS011;10984;45.712;4.800;2023-02-28T15:46:07;8.45;;;4.25;;
21645;SDS011;10984;45.712;4.800;2023-02-28T15:48:56;8.20;;;4.53;;
21645;SDS011;10984;45.712;4.800;2023-02-28T15:54:06;9.05;;;5.25;;
21645;SDS011;10984;45.712;4.800;2023-02-28T16:04:35;8.68;;;4.90;;
21645;SDS011;10984;45.712;4.800;2023-02-28T16:07:03;8.23;;;4.45;;
21645;SDS011;10984;45.712;4.800;2023-02-28T16:09:30;8.63;;;4.40;;
21645;SDS011;10984;45.712;4.800;2023-02-28T16:11:56;8.02;;;4.72;;
21645;SDS011;10984;45.712;4.800;2023-02-28T16:14:44;8.25;;;4.25;;
21645;SDS011;10984;45.712;4.800;2023-02-28T16:17:16;10.57;;;5.20;;
21645;SDS011;10984;45.712;4.800;2023-02-28T16:19:49;7.60;;;4.57;;
21645;SDS011;10984;45.712;4.800;2023-02-28T16:22:15;9.25;;;4.60;;
21645;SDS011;10984;45.712;4.800;2023-02-28T16:24:40;8.85;;;4.82;;
21645;SDS011;10984;45.712;4.800;2023-02-28T16:27:06;9.38;;;5.00;;
21645;SDS011;10984;45.712;4.800;2023-02-28T16:29:54;10.15;;;4.60;;
21645;SDS011;10984;45.712;4.800;2023-02-28T16:32:20;10.38;;;5.00;;
21645;SDS011;10984;45.712;4.800;2023-02-28T16:34:46;8.25;;;4.55;;
21645;SDS011;10984;45.712;4.800;2023-02-28T16:37:13;9.13;;;5.03;;
21645;SDS011;10984;45.712;4.800;2023-02-28T16:39:41;11.18;;;4.93;;
21645;SDS011;10984;45.712;4.800;2023-02-28T16:42:10;7.97;;;4.72;;
21645;SDS011;10984;45.712;4.800;2023-02-28T16:44:55;8.93;;;5.00;;
21645;SDS011;10984;45.712;4.800;2023-02-28T16:47:21;11.15;;;5.22;;
21645;SDS011;10984;45.712;4.800;2023-02-28T16:49:47;8.73;;;4.97;;
21645;SDS011;10984;45.712;4.800;2023-02-28T16:52:12;8.98;;;5.35;;
21645;SDS011;10984;45.712;4.800;2023-02-28T16:54:39;10.85;;;5.35;;
21645;SDS011;10984;45.712;4.800;2023-02-28T16:57:06;8.45;;;4.70;;
21645;SDS011;10984;45.712;4.800;2023-02-28T16:59:48;10.13;;;5.38;;
21645;SDS011;10984;45.712;4.800;2023-02-28T17:02:16;9.30;;;4.97;;
21645;SDS011;10984;45.712;4.800;2023-02-28T17:04:44;7.88;;;4.57;;
21645;SDS011;10984;45.712;4.800;2023-02-28T17:09:54;9.88;;;5.05;;
21645;SDS011;10984;45.712;4.800;2023-02-28T17:12:19;8.68;;;4.80;;
21645;SDS011;10984;45.712;4.800;2023-02-28T17:14:45;10.57;;;5.55;;
21645;SDS011;10984;45.712;4.800;2023-02-28T17:17:20;9.52;;;5.20;;
21645;SDS011;10984;45.712;4.800;2023-02-28T17:19:47;11.32;;;5.75;;
21645;SDS011;10984;45.712;4.800;2023-02-28T17:22:12;10.27;;;5.93;;
21645;SDS011;10984;45.712;4.800;2023-02-28T17:24:38;10.43;;;5.57;;
21645;SDS011;10984;45.712;4.800;2023-02-28T17:27:04;8.75;;;5.22;;
21645;SDS011;10984;45.712;4.800;2023-02-28T17:29:32;10.02;;;5.05;;
21645;SDS011;10984;45.712;4.800;2023-02-28T17:31:58;11.00;;;5.63;;
21645;SDS011;10984;45.712;4.800;2023-02-28T17:34:23;8.85;;;4.90;;
21645;SDS011;10984;45.712;4.800;2023-02-28T17:36:50;8.65;;;5.00;;
21645;SDS011;10984;45.712;4.800;2023-02-28T17:39:17;10.02;;;5.18;;
21645;SDS011;10984;45.712;4.800;2023-02-28T17:41:49;8.32;;;4.97;;
21645;SDS011;10984;45.712;4.800;2023-02-28T17:44:16;9.23;;;4.72;;
21645;SDS011;10984;45.712;4.800;2023-02-28T17:46:42;10.98;;;5.00;;
21645;SDS011;10984;45.712;4.800;2023-02-28T17:49:09;9.43;;;5.38;;
21645;SDS011;10984;45.712;4.800;2023-02-28T17:51:35;8.68;;;4.47;;
21645;SDS011;10984;45.712;4.800;2023-02-28T17:54:01;8.93;;;4.93;;
21645;SDS011;10984;45.712;4.800;2023-02-28T17:56:26;8.73;;;5.20;;
21645;SDS011;10984;45.712;4.800;2023-02-28T17:58:53;10.15;;;5.30;;
21645;SDS011;10984;45.712;4.800;2023-02-28T18:01:20;11.90;;;5.88;;
21645;SDS011;10984;45.712;4.800;2023-02-28T18:03:47;9.52;;;5.60;;
21645;SDS011;10984;45.712;4.800;2023-02-28T18:06:23;9.63;;;4.90;;
21645;SDS011;10984;45.712;4.800;2023-02-28T18:09:27;9.45;;;4.88;;
21645;SDS011;10984;45.712;4.800;2023-02-28T18:11:53;8.82;;;5.78;;
21645;SDS011;10984;45.712;4.800;2023-02-28T18:14:20;10.20;;;4.90;;
21645;SDS011;10984;45.712;4.800;2023-02-28T18:16:49;8.65;;;4.65;;
21645;SDS011;10984;45.712;4.800;2023-02-28T18:19:16;8.45;;;4.95;;
21645;SDS011;10984;45.712;4.800;2023-02-28T18:21:42;9.13;;;4.40;;
21645;SDS011;10984;45.712;4.800;2023-02-28T18:24:09;8.68;;;5.25;;
21645;SDS011;10984;45.712;4.800;2023-02-28T18:26:36;8.52;;;5.07;;
21645;SDS011;10984;45.712;4.800;2023-02-28T18:29:02;10.75;;;5.30;;
21645;SDS011;10984;45.712;4.800;2023-02-28T18:31:28;11.10;;;5.70;;
21645;SDS011;10984;45.712;4.800;2023-02-28T18:33:56;8.88;;;5.25;;
21645;SDS011;10984;45.712;4.800;2023-02-28T18:36:22;11.13;;;5.20;;
21645;SDS011;10984;45.712;4.800;2023-02-28T18:38:48;11.77;;;5.38;;
21645;SDS011;10984;45.712;4.800;2023-02-28T18:41:15;10.32;;;5.53;;
21645;SDS011;10984;45.712;4.800;2023-02-28T18:43:41;10.50;;;6.20;;
21645;SDS011;10984;45.712;4.800;2023-02-28T18:46:08;10.93;;;5.30;;
21645;SDS011;10984;45.712;4.800;2023-02-28T18:48:35;12.90;;;5.80;;
21645;SDS011;10984;45.712;4.800;2023-02-28T18:53:47;10.40;;;6.05;;
21645;SDS011;10984;45.712;4.800;2023-02-28T18:56:14;10.80;;;6.00;;
21645;SDS011;10984;45.712;4.800;2023-02-28T18:58:41;9.05;;;5.15;;
21645;SDS011;10984;45.712;4.800;2023-02-28T19:03:55;16.10;;;7.18;;
21645;SDS011;10984;45.712;4.800;2023-02-28T19:06:21;10.15;;;5.95;;
21645;SDS011;10984;45.712;4.800;2023-02-28T19:08:47;9.70;;;6.50;;
21645;SDS011;10984;45.712;4.800;2023-02-28T19:11:17;10.10;;;5.25;;
21645;SDS011;10984;45.712;4.800;2023-02-28T19:13:43;10.57;;;5.60;;
21645;SDS011;10984;45.712;4.800;2023-02-28T19:16:10;15.50;;;6.43;;
21645;SDS011;10984;45.712;4.800;2023-02-28T19:18:38;12.75;;;6.28;;
21645;SDS011;10984;45.712;4.800;2023-02-28T19:23:50;10.05;;;6.10;;
21645;SDS011;10984;45.712;4.800;2023-02-28T19:29:01;11.48;;;6.10;;
21645;SDS011;10984;45.712;4.800;2023-02-28T19:31:27;13.50;;;5.82;;
21645;SDS011;10984;45.712;4.800;2023-02-28T19:33:53;8.52;;;5.35;;
21645;SDS011;10984;45.712;4.800;2023-02-28T19:36:19;12.25;;;6.68;;
21645;SDS011;10984;45.712;4.800;2023-02-28T19:38:46;12.90;;;6.55;;
21645;SDS011;10984;45.712;4.800;2023-02-28T19:41:12;11.85;;;6.18;;
21645;SDS011;10984;45.712;4.800;2023-02-28T19:43:39;11.88;;;6.40;;
21645;SDS011;10984;45.712;4.800;2023-02-28T19:46:05;9.35;;;5.70;;
21645;SDS011;10984;45.712;4.800;2023-02-28T19:48:31;10.68;;;5.95;;
21645;SDS011;10984;45.712;4.800;2023-02-28T19:50:58;11.43;;;5.63;;
21645;SDS011;10984;45.712;4.800;2023-02-28T19:53:25;13.20;;;7.32;;
21645;SDS011;10984;45.712;4.800;2023-02-28T19:55:52;10.77;;;6.03;;
21645;SDS011;10984;45.712;4.800;2023-02-28T19:58:18;10.25;;;6.00;;
21645;SDS011;10984;45.712;4.800;2023-02-28T20:00:44;10.85;;;5.95;;
21645;SDS011;10984;45.712;4.800;2023-02-28T20:03:10;13.43;;;6.90;;
21645;SDS011;10984;45.712;4.800;2023-02-28T20:05:36;10.75;;;6.90;;
21645;SDS011;10984;45.712;4.800;2023-02-28T20:08:02;13.65;;;6.35;;
21645;SDS011;10984;45.712;4.800;2023-02-28T20:10:28;10.73;;;5.90;;
21645;SDS011;10984;45.712;4.800;2023-02-28T20:12:54;12.52;;;6.40;;
21645;SDS011;10984;45.712;4.800;2023-02-28T20:15:21;12.27;;;6.13;;